sensor_id;sensor_type;location;lat;lon;timestamp;pressure;altitude;pressure_sealevel;temperature;humidity
80749;BME280;70145;53.746;9.970;2023-06-05T00:01:43;102080.91;;;13.03;44.18
80749;BME280;70145;53.746;9.970;2023-06-05T00:04:08;102080.25;;;13.00;44.22
80749;BME280;70145;53.746;9.970;2023-06-05T00:06:34;102072.47;;;12.95;44.43
80749;BME280;70145;53.746;9.970;2023-06-05T00:09:00;102078.03;;;12.92;44.26
80749;BME280;70145;53.746;9.970;2023-06-05T00:11:26;102077.50;;;12.87;44.45
80749;BME280;70145;53.746;9.970;2023-06-05T00:13:52;102083.09;;;12.84;44.58
80749;BME280;70145;53.746;9.970;2023-06-05T00:16:17;102078.00;;;12.80;44.88
80749;BME280;70145;53.746;9.970;2023-06-05T00:18:42;102086.19;;;12.78;44.84
80749;BME280;70145;53.746;9.970;2023-06-05T00:21:09;102073.88;;;12.74;45.12
80749;BME280;70145;53.746;9.970;2023-06-05T00:23:35;102081.28;;;12.71;45.10
80749;BME280;70145;53.746;9.970;2023-06-05T00:26:00;102080.59;;;12.67;45.10
80749;BME280;70145;53.746;9.970;2023-06-05T00:28:25;102080.88;;;12.63;45.05
80749;BME280;70145;53.746;9.970;2023-06-05T00:30:51;102085.63;;;12.59;45.12
80749;BME280;70145;53.746;9.970;2023-06-05T00:33:16;102086.78;;;12.55;45.29
80749;BME280;70145;53.746;9.970;2023-06-05T00:35:42;102086.97;;;12.52;45.28
80749;BME280;70145;53.746;9.970;2023-06-05T00:38:08;102088.97;;;12.49;45.37
80749;BME280;70145;53.746;9.970;2023-06-05T00:40:33;102082.06;;;12.45;45.50
80749;BME280;70145;53.746;9.970;2023-06-05T00:42:58;102079.53;;;12.42;45.28
80749;BME280;70145;53.746;9.970;2023-06-05T00:45:24;102080.69;;;12.38;45.68
80749;BME280;70145;53.746;9.970;2023-06-05T00:47:49;102087.09;;;12.35;45.50
80749;BME280;70145;53.746;9.970;2023-06-05T00:50:15;102079.34;;;12.31;45.82
80749;BME280;70145;53.746;9.970;2023-06-05T00:52:42;102083.06;;;12.28;45.91
80749;BME280;70145;53.746;9.970;2023-06-05T00:55:10;102072.59;;;12.24;45.63
80749;BME280;70145;53.746;9.970;2023-06-05T00:57:37;102083.53;;;12.21;46.04
80749;BME280;70145;53.746;9.970;2023-06-05T01:00:04;102077.41;;;12.19;45.99
80749;BME280;70145;53.746;9.970;2023-06-05T01:02:32;102068.63;;;12.15;46.00
80749;BME280;70145;53.746;9.970;2023-06-05T01:05:00;102074.22;;;12.12;46.11
80749;BME280;70145;53.746;9.970;2023-06-05T01:07:26;102068.06;;;12.10;46.17
80749;BME280;70145;53.746;9.970;2023-06-05T01:09:54;102073.66;;;12.07;46.12
80749;BME280;70145;53.746;9.970;2023-06-05T01:15:01;102077.59;;;12.02;45.79
80749;BME280;70145;53.746;9.970;2023-06-05T01:17:27;102064.50;;;11.96;46.52
80749;BME280;70145;53.746;9.970;2023-06-05T01:19:59;102062.88;;;11.93;46.53
80749;BME280;70145;53.746;9.970;2023-06-05T01:22:25;102066.69;;;11.89;46.44
80749;BME280;70145;53.746;9.970;2023-06-05T01:24:51;102070.44;;;11.86;46.32
80749;BME280;70145;53.746;9.970;2023-06-05T01:27:32;102063.53;;;11.82;46.40
80749;BME280;70145;53.746;9.970;2023-06-05T01:32:40;102064.84;;;11.75;46.16
80749;BME280;70145;53.746;9.970;2023-06-05T01:35:08;102064.16;;;11.72;46.61
80749;BME280;70145;53.746;9.970;2023-06-05T01:37:36;102059.84;;;11.69;46.83
80749;BME280;70145;53.746;9.970;2023-06-05T01:40:08;102063.56;;;11.67;46.55
80749;BME280;70145;53.746;9.970;2023-06-05T01:42:36;102066.47;;;11.64;46.68
80749;BME280;70145;53.746;9.970;2023-06-05T01:45:03;102067.56;;;11.60;46.81
80749;BME280;70145;53.746;9.970;2023-06-05T01:47:29;102062.38;;;11.57;46.72
80749;BME280;70145;53.746;9.970;2023-06-05T01:49:54;102065.25;;;11.54;46.48
80749;BME280;70145;53.746;9.970;2023-06-05T01:52:20;102061.97;;;11.49;47.07
80749;BME280;70145;53.746;9.970;2023-06-05T01:54:45;102059.38;;;11.47;47.05
80749;BME280;70145;53.746;9.970;2023-06-05T01:57:13;102062.34;;;11.43;46.62
80749;BME280;70145;53.746;9.970;2023-06-05T01:59:40;102065.31;;;11.38;46.78
80749;BME280;70145;53.746;9.970;2023-06-05T02:02:05;102060.06;;;11.35;46.95
80749;BME280;70145;53.746;9.970;2023-06-05T02:04:30;102064.00;;;11.30;47.13
80749;BME280;70145;53.746;9.970;2023-06-05T02:06:56;102056.09;;;11.27;46.84
80749;BME280;70145;53.746;9.970;2023-06-05T02:09:28;102058.13;;;11.23;46.59
80749;BME280;70145;53.746;9.970;2023-06-05T02:11:53;102060.09;;;11.20;46.93
80749;BME280;70145;53.746;9.970;2023-06-05T02:14:18;102051.44;;;11.15;47.12
80749;BME280;70145;53.746;9.970;2023-06-05T02:16:44;102049.88;;;11.11;46.87
80749;BME280;70145;53.746;9.970;2023-06-05T02:19:13;102054.50;;;11.09;47.05
80749;BME280;70145;53.746;9.970;2023-06-05T02:21:38;102047.63;;;11.03;46.96
80749;BME280;70145;53.746;9.970;2023-06-05T02:24:04;102045.13;;;11.00;47.20
80749;BME280;70145;53.746;9.970;2023-06-05T02:26:30;102039.06;;;10.97;47.01
80749;BME280;70145;53.746;9.970;2023-06-05T02:28:55;102045.50;;;10.94;47.24
80749;BME280;70145;53.746;9.970;2023-06-05T02:31:24;102031.34;;;10.91;47.02
80749;BME280;70145;53.746;9.970;2023-06-05T02:33:52;102034.22;;;10.88;47.06
80749;BME280;70145;53.746;9.970;2023-06-05T02:36:17;102033.53;;;10.84;47.36
80749;BME280;70145;53.746;9.970;2023-06-05T02:38:43;102034.56;;;10.82;47.35
80749;BME280;70145;53.746;9.970;2023-06-05T02:41:08;102024.06;;;10.77;47.20
80749;BME280;70145;53.746;9.970;2023-06-05T02:43:34;102030.50;;;10.75;47.46
80749;BME280;70145;53.746;9.970;2023-06-05T02:45:59;102028.88;;;10.72;47.18
80749;BME280;70145;53.746;9.970;2023-06-05T02:48:25;102025.47;;;10.69;47.02
80749;BME280;70145;53.746;9.970;2023-06-05T02:50:50;102022.09;;;10.65;47.00
80749;BME280;70145;53.746;9.970;2023-06-05T02:53:15;102025.81;;;10.63;46.95
80749;BME280;70145;53.746;9.970;2023-06-05T02:55:40;102020.59;;;10.60;47.26
80749;BME280;70145;53.746;9.970;2023-06-05T02:58:07;102024.34;;;10.57;47.03
80749;BME280;70145;53.746;9.970;2023-06-05T03:00:33;102020.97;;;10.54;47.22
80749;BME280;70145;53.746;9.970;2023-06-05T03:02:58;102027.38;;;10.51;47.16
80749;BME280;70145;53.746;9.970;2023-06-05T03:05:23;102018.63;;;10.48;47.70
80749;BME280;70145;53.746;9.970;2023-06-05T03:07:52;102026.78;;;10.46;47.35
80749;BME280;70145;53.746;9.970;2023-06-05T03:10:21;102023.38;;;10.43;47.39
80749;BME280;70145;53.746;9.970;2023-06-05T03:12:46;102024.34;;;10.42;47.47
80749;BME280;70145;53.746;9.970;2023-06-05T03:15:12;102022.78;;;10.38;47.81
80749;BME280;70145;53.746;9.970;2023-06-05T03:17:37;102019.31;;;10.36;47.83
80749;BME280;70145;53.746;9.970;2023-06-05T03:20:02;102014.09;;;10.33;48.24
80749;BME280;70145;53.746;9.970;2023-06-05T03:22:29;102018.72;;;10.31;48.18
80749;BME280;70145;53.746;9.970;2023-06-05T03:24:55;102020.59;;;10.29;47.99
80749;BME280;70145;53.746;9.970;2023-06-05T03:27:20;102015.41;;;10.26;48.09
80749;BME280;70145;53.746;9.970;2023-06-05T03:29:46;102022.66;;;10.24;48.08
80749;BME280;70145;53.746;9.970;2023-06-05T03:32:11;102017.34;;;10.22;48.45
80749;BME280;70145;53.746;9.970;2023-06-05T03:34:37;102015.69;;;10.20;48.13
80749;BME280;70145;53.746;9.970;2023-06-05T03:39:30;102017.63;;;10.18;48.63
80749;BME280;70145;53.746;9.970;2023-06-05T03:41:56;102018.53;;;10.17;49.09
80749;BME280;70145;53.746;9.970;2023-06-05T03:44:21;102007.03;;;10.15;48.88
80749;BME280;70145;53.746;9.970;2023-06-05T03:46:47;102020.47;;;10.15;49.07
80749;BME280;70145;53.746;9.970;2023-06-05T03:49:13;102016.03;;;10.14;49.25
80749;BME280;70145;53.746;9.970;2023-06-05T03:51:38;102016.03;;;10.14;49.27
80749;BME280;70145;53.746;9.970;2023-06-05T03:54:05;102016.03;;;10.14;49.30
80749;BME280;70145;53.746;9.970;2023-06-05T03:56:31;102010.66;;;10.14;49.42
80749;BME280;70145;53.746;9.970;2023-06-05T03:59:02;102016.03;;;10.14;49.67
80749;BME280;70145;53.746;9.970;2023-06-05T04:01:34;102023.16;;;10.15;49.70
80749;BME280;70145;53.746;9.970;2023-06-05T04:04:05;102016.03;;;10.14;49.93
80749;BME280;70145;53.746;9.970;2023-06-05T04:06:31;102022.19;;;10.16;50.15
80749;BME280;70145;53.746;9.970;2023-06-05T04:08:58;102023.06;;;10.16;51.07
80749;BME280;70145;53.746;9.970;2023-06-05T04:11:23;102029.28;;;10.17;50.93
80749;BME280;70145;53.746;9.970;2023-06-05T04:13:52;102025.66;;;10.18;50.82
80749;BME280;70145;53.746;9.970;2023-06-05T04:16:17;102030.00;;;10.20;51.30
80749;BME280;70145;53.746;9.970;2023-06-05T04:18:43;102021.06;;;10.20;51.75
80749;BME280;70145;53.746;9.970;2023-06-05T04:21:08;102024.53;;;10.22;51.81
80749;BME280;70145;53.746;9.970;2023-06-05T04:23:33;102021.81;;;10.23;52.15
80749;BME280;70145;53.746;9.970;2023-06-05T04:25:58;102028.75;;;10.27;51.95
80749;BME280;70145;53.746;9.970;2023-06-05T04:28:24;102033.06;;;10.30;52.21
80749;BME280;70145;53.746;9.970;2023-06-05T04:30:49;102026.66;;;10.32;52.20
80749;BME280;70145;53.746;9.970;2023-06-05T04:33:14;102026.56;;;10.34;52.39
80749;BME280;70145;53.746;9.970;2023-06-05T04:35:40;102028.06;;;10.39;53.08
80749;BME280;70145;53.746;9.970;2023-06-05T04:38:05;102034.13;;;10.43;53.56
80749;BME280;70145;53.746;9.970;2023-06-05T04:40:30;102033.94;;;10.46;53.55
80749;BME280;70145;53.746;9.970;2023-06-05T04:42:56;102033.78;;;10.49;53.79
80749;BME280;70145;53.746;9.970;2023-06-05T04:45:21;102026.44;;;10.52;54.07
80749;BME280;70145;53.746;9.970;2023-06-05T04:47:47;102022.53;;;10.58;54.09
80749;BME280;70145;53.746;9.970;2023-06-05T04:50:32;102026.84;;;10.60;54.94
80749;BME280;70145;53.746;9.970;2023-06-05T04:52:58;102024.78;;;10.65;54.93
80749;BME280;70145;53.746;9.970;2023-06-05T04:55:24;102027.13;;;10.71;54.55
80749;BME280;70145;53.746;9.970;2023-06-05T04:57:49;102029.44;;;10.77;54.66
80749;BME280;70145;53.746;9.970;2023-06-05T05:00:16;102022.09;;;10.81;55.26
80749;BME280;70145;53.746;9.970;2023-06-05T05:02:42;102023.56;;;10.86;56.25
80749;BME280;70145;53.746;9.970;2023-06-05T05:05:07;102025.97;;;10.91;55.79
80749;BME280;70145;53.746;9.970;2023-06-05T05:07:33;102025.63;;;10.97;55.58
80749;BME280;70145;53.746;9.970;2023-06-05T05:10:00;102026.13;;;11.03;55.60
80749;BME280;70145;53.746;9.970;2023-06-05T05:12:26;102030.31;;;11.09;55.61
80749;BME280;70145;53.746;9.970;2023-06-05T05:14:51;102026.31;;;11.16;55.24
80749;BME280;70145;53.746;9.970;2023-06-05T05:17:16;102025.94;;;11.22;55.89
80749;BME280;70145;53.746;9.970;2023-06-05T05:19:44;102021.94;;;11.29;56.02
80749;BME280;70145;53.746;9.970;2023-06-05T05:22:10;102019.69;;;11.37;55.74
80749;BME280;70145;53.746;9.970;2023-06-05T05:24:36;102022.78;;;11.45;55.99
80749;BME280;70145;53.746;9.970;2023-06-05T05:27:01;102033.19;;;11.51;56.64
80749;BME280;70145;53.746;9.970;2023-06-05T05:29:26;102029.91;;;11.60;55.95
80749;BME280;70145;53.746;9.970;2023-06-05T05:31:52;102033.97;;;11.67;56.22
80749;BME280;70145;53.746;9.970;2023-06-05T05:34:18;102034.38;;;11.75;55.91
80749;BME280;70145;53.746;9.970;2023-06-05T05:36:43;102041.03;;;11.83;55.98
80749;BME280;70145;53.746;9.970;2023-06-05T05:39:09;102032.50;;;11.91;55.78
80749;BME280;70145;53.746;9.970;2023-06-05T05:41:35;102037.31;;;12.00;55.88
80749;BME280;70145;53.746;9.970;2023-06-05T05:44:00;102035.00;;;12.08;55.83
80749;BME280;70145;53.746;9.970;2023-06-05T05:46:25;102030.94;;;12.15;56.37
80749;BME280;70145;53.746;9.970;2023-06-05T05:48:51;102026.91;;;12.22;56.25
80749;BME280;70145;53.746;9.970;2023-06-05T05:51:17;102034.59;;;12.28;56.62
80749;BME280;70145;53.746;9.970;2023-06-05T05:53:42;102029.63;;;12.36;56.46
80749;BME280;70145;53.746;9.970;2023-06-05T05:56:07;102039.84;;;12.45;56.87
80749;BME280;70145;53.746;9.970;2023-06-05T05:58:32;102035.78;;;12.52;56.66
80749;BME280;70145;53.746;9.970;2023-06-05T06:00:59;102031.53;;;12.62;56.37
80749;BME280;70145;53.746;9.970;2023-06-05T06:03:24;102031.03;;;12.70;56.61
80749;BME280;70145;53.746;9.970;2023-06-05T06:05:52;102033.22;;;12.77;56.92
80749;BME280;70145;53.746;9.970;2023-06-05T06:08:17;102028.09;;;12.87;57.04
80749;BME280;70145;53.746;9.970;2023-06-05T06:10:43;102035.59;;;12.96;56.58
80749;BME280;70145;53.746;9.970;2023-06-05T06:13:08;102035.06;;;13.03;56.90
80749;BME280;70145;53.746;9.970;2023-06-05T06:15:35;102031.75;;;13.12;56.98
80749;BME280;70145;53.746;9.970;2023-06-05T06:18:02;102033.84;;;13.21;57.05
80749;BME280;70145;53.746;9.970;2023-06-05T06:20:28;102043.94;;;13.32;57.09
80749;BME280;70145;53.746;9.970;2023-06-05T06:22:54;102036.94;;;13.42;56.75
80749;BME280;70145;53.746;9.970;2023-06-05T06:25:20;102040.88;;;13.50;57.02
80749;BME280;70145;53.746;9.970;2023-06-05T06:27:46;102035.59;;;13.61;57.00
80749;BME280;70145;53.746;9.970;2023-06-05T06:30:14;102040.25;;;13.72;57.11
80749;BME280;70145;53.746;9.970;2023-06-05T06:32:39;102036.06;;;13.80;56.90
80749;BME280;70145;53.746;9.970;2023-06-05T06:35:08;102038.91;;;13.91;56.60
80749;BME280;70145;53.746;9.970;2023-06-05T06:37:33;102032.81;;;14.00;56.42
80749;BME280;70145;53.746;9.970;2023-06-05T06:39:59;102031.34;;;14.09;56.40
80749;BME280;70145;53.746;9.970;2023-06-05T06:42:24;102036.94;;;14.19;56.07
80749;BME280;70145;53.746;9.970;2023-06-05T06:44:50;102038.00;;;14.29;56.06
80749;BME280;70145;53.746;9.970;2023-06-05T06:47:21;102032.94;;;14.37;55.65
80749;BME280;70145;53.746;9.970;2023-06-05T06:49:46;102040.38;;;14.46;55.95
80749;BME280;70145;53.746;9.970;2023-06-05T06:52:12;102045.13;;;14.55;55.88
80749;BME280;70145;53.746;9.970;2023-06-05T06:54:37;102036.47;;;14.62;55.70
80749;BME280;70145;53.746;9.970;2023-06-05T06:57:03;102034.94;;;14.71;55.43
80749;BME280;70145;53.746;9.970;2023-06-05T06:59:28;102040.75;;;14.77;55.36
80749;BME280;70145;53.746;9.970;2023-06-05T07:02:14;102038.47;;;14.84;55.44
80749;BME280;70145;53.746;9.970;2023-06-05T07:04:40;102049.44;;;14.93;55.35
80749;BME280;70145;53.746;9.970;2023-06-05T07:07:17;102041.66;;;15.01;55.36
80749;BME280;70145;53.746;9.970;2023-06-05T07:09:44;102036.41;;;15.11;55.23
80749;BME280;70145;53.746;9.970;2023-06-05T07:12:12;102042.97;;;15.19;55.13
80749;BME280;70145;53.746;9.970;2023-06-05T07:14:38;102033.22;;;15.29;54.69
80749;BME280;70145;53.746;9.970;2023-06-05T07:17:04;102037.91;;;15.38;54.67
80749;BME280;70145;53.746;9.970;2023-06-05T07:19:31;102039.06;;;15.47;54.43
80749;BME280;70145;53.746;9.970;2023-06-05T07:21:59;102041.06;;;15.56;54.27
80749;BME280;70145;53.746;9.970;2023-06-05T07:24:25;102044.78;;;15.66;54.37
80749;BME280;70145;53.746;9.970;2023-06-05T07:26:54;102037.69;;;15.76;54.16
80749;BME280;70145;53.746;9.970;2023-06-05T07:29:20;102035.13;;;15.85;54.16
80749;BME280;70145;53.746;9.970;2023-06-05T07:31:47;102037.00;;;15.96;53.98
80749;BME280;70145;53.746;9.970;2023-06-05T07:34:13;102033.56;;;16.05;53.89
80749;BME280;70145;53.746;9.970;2023-06-05T07:36:39;102035.44;;;16.15;53.60
80749;BME280;70145;53.746;9.970;2023-06-05T07:39:04;102028.31;;;16.26;53.21
80749;BME280;70145;53.746;9.970;2023-06-05T07:41:30;102034.59;;;16.37;52.98
80749;BME280;70145;53.746;9.970;2023-06-05T07:43:55;102033.88;;;16.46;52.78
80749;BME280;70145;53.746;9.970;2023-06-05T07:46:20;102030.28;;;16.57;52.59
80749;BME280;70145;53.746;9.970;2023-06-05T07:48:46;102027.81;;;16.65;52.15
80749;BME280;70145;53.746;9.970;2023-06-05T07:51:11;102030.53;;;16.76;52.15
80749;BME280;70145;53.746;9.970;2023-06-05T07:53:36;102031.47;;;16.86;51.98
80749;BME280;70145;53.746;9.970;2023-06-05T07:56:02;102033.44;;;16.95;51.79
80749;BME280;70145;53.746;9.970;2023-06-05T07:58:27;102035.41;;;17.04;51.47
80749;BME280;70145;53.746;9.970;2023-06-05T08:00:54;102030.22;;;17.12;51.35
80749;BME280;70145;53.746;9.970;2023-06-05T08:03:22;102036.72;;;17.20;51.26
80749;BME280;70145;53.746;9.970;2023-06-05T08:05:51;102033.94;;;17.31;50.97
80749;BME280;70145;53.746;9.970;2023-06-05T08:08:17;102031.59;;;17.38;50.69
80749;BME280;70145;53.746;9.970;2023-06-05T08:10:43;102026.09;;;17.49;50.44
80749;BME280;70145;53.746;9.970;2023-06-05T08:13:09;102030.88;;;17.56;50.15
80749;BME280;70145;53.746;9.970;2023-06-05T08:15:35;102025.38;;;17.67;49.90
80749;BME280;70145;53.746;9.970;2023-06-05T08:18:01;102031.06;;;17.75;49.99
80749;BME280;70145;53.746;9.970;2023-06-05T08:20:26;102023.09;;;17.83;49.73
80749;BME280;70145;53.746;9.970;2023-06-05T08:22:51;102018.59;;;17.93;49.53
80749;BME280;70145;53.746;9.970;2023-06-05T08:25:17;102023.97;;;18.04;48.68
80749;BME280;70145;53.746;9.970;2023-06-05T08:27:42;102023.88;;;18.15;49.03
80749;BME280;70145;53.746;9.970;2023-06-05T08:30:07;102011.31;;;18.24;48.65
80749;BME280;70145;53.746;9.970;2023-06-05T08:32:33;102018.53;;;18.34;48.17
80749;BME280;70145;53.746;9.970;2023-06-05T08:34:59;102025.88;;;18.44;47.69
80749;BME280;70145;53.746;9.970;2023-06-05T08:37:24;102019.78;;;18.51;47.34
80749;BME280;70145;53.746;9.970;2023-06-05T08:39:50;102022.81;;;18.58;47.22
80749;BME280;70145;53.746;9.970;2023-06-05T08:42:15;102020.25;;;18.66;47.07
80749;BME280;70145;53.746;9.970;2023-06-05T08:44:45;102022.25;;;18.73;46.61
80749;BME280;70145;53.746;9.970;2023-06-05T08:47:13;102016.00;;;18.82;46.49
80749;BME280;70145;53.746;9.970;2023-06-05T08:49:41;102012.31;;;18.93;46.47
80749;BME280;70145;53.746;9.970;2023-06-05T08:52:07;102014.19;;;19.02;46.49
80749;BME280;70145;53.746;9.970;2023-06-05T08:54:40;102005.75;;;19.14;46.08
80749;BME280;70145;53.746;9.970;2023-06-05T08:57:06;102010.38;;;19.23;45.99
80749;BME280;70145;53.746;9.970;2023-06-05T08:59:33;102004.09;;;19.32;45.93
80749;BME280;70145;53.746;9.970;2023-06-05T09:01:58;102004.06;;;19.42;45.36
80749;BME280;70145;53.746;9.970;2023-06-05T09:04:24;102002.19;;;19.52;44.99
80749;BME280;70145;53.746;9.970;2023-06-05T09:06:51;101998.59;;;19.61;45.19
80749;BME280;70145;53.746;9.970;2023-06-05T09:09:19;102005.19;;;19.68;44.43
80749;BME280;70145;53.746;9.970;2023-06-05T09:11:45;101990.56;;;19.78;44.65
80749;BME280;70145;53.746;9.970;2023-06-05T09:14:10;101993.25;;;19.88;44.29
80749;BME280;70145;53.746;9.970;2023-06-05T09:16:40;101986.94;;;19.97;43.79
80749;BME280;70145;53.746;9.970;2023-06-05T09:19:08;101993.38;;;20.05;43.96
80749;BME280;70145;53.746;9.970;2023-06-05T09:21:34;101982.03;;;20.10;43.42
80749;BME280;70145;53.746;9.970;2023-06-05T09:24:15;101995.75;;;20.18;43.13
80749;BME280;70145;53.746;9.970;2023-06-05T09:27:01;101991.03;;;20.20;42.69
80749;BME280;70145;53.746;9.970;2023-06-05T09:29:28;101990.13;;;20.29;42.80
80749;BME280;70145;53.746;9.970;2023-06-05T09:31:55;101995.84;;;20.35;42.75
80749;BME280;70145;53.746;9.970;2023-06-05T09:34:23;101987.19;;;20.40;42.94
80749;BME280;70145;53.746;9.970;2023-06-05T09:36:49;101984.28;;;20.51;42.87
80749;BME280;70145;53.746;9.970;2023-06-05T09:39:16;101978.22;;;20.57;42.38
80749;BME280;70145;53.746;9.970;2023-06-05T09:41:43;101994.41;;;20.68;41.83
80749;BME280;70145;53.746;9.970;2023-06-05T09:44:10;101986.31;;;20.76;41.58
80749;BME280;70145;53.746;9.970;2023-06-05T09:46:58;101990.88;;;20.85;41.64
80749;BME280;70145;53.746;9.970;2023-06-05T09:49:28;101988.69;;;20.89;41.43
80749;BME280;70145;53.746;9.970;2023-06-05T09:51:55;101986.44;;;21.02;41.19
80749;BME280;70145;53.746;9.970;2023-06-05T09:54:22;101979.88;;;21.12;41.30
80749;BME280;70145;53.746;9.970;2023-06-05T09:56:48;101986.16;;;21.22;40.88
80749;BME280;70145;53.746;9.970;2023-06-05T09:59:18;101988.66;;;21.33;40.91
80749;BME280;70145;53.746;9.970;2023-06-05T10:01:45;101992.16;;;21.43;40.60
80749;BME280;70145;53.746;9.970;2023-06-05T10:04:13;101989.34;;;21.53;40.31
80749;BME280;70145;53.746;9.970;2023-06-05T10:06:41;101984.50;;;21.64;40.29
80749;BME280;70145;53.746;9.970;2023-06-05T10:09:07;101972.59;;;21.73;39.48
80749;BME280;70145;53.746;9.970;2023-06-05T10:11:34;101977.09;;;21.82;39.36
80749;BME280;70145;53.746;9.970;2023-06-05T10:14:00;101975.13;;;21.92;39.27
80749;BME280;70145;53.746;9.970;2023-06-05T10:16:27;101974.91;;;22.03;39.41
80749;BME280;70145;53.746;9.970;2023-06-05T10:18:56;101977.34;;;22.14;39.15
80749;BME280;70145;53.746;9.970;2023-06-05T10:21:23;101974.47;;;22.24;39.12
80749;BME280;70145;53.746;9.970;2023-06-05T10:23:52;101971.47;;;22.35;38.97
80749;BME280;70145;53.746;9.970;2023-06-05T10:26:48;101971.50;;;22.43;38.38
80749;BME280;70145;53.746;9.970;2023-06-05T10:29:40;101967.28;;;22.57;38.50
80749;BME280;70145;53.746;9.970;2023-06-05T10:35:01;101961.03;;;22.72;37.79
80749;BME280;70145;53.746;9.970;2023-06-05T10:40:05;101962.94;;;22.88;37.49
80749;BME280;70145;53.746;9.970;2023-06-05T10:42:31;101965.72;;;22.96;37.20
80749;BME280;70145;53.746;9.970;2023-06-05T10:44:56;101960.25;;;23.04;37.37
80749;BME280;70145;53.746;9.970;2023-06-05T10:52:47;101956.22;;;23.32;36.32
80749;BME280;70145;53.746;9.970;2023-06-05T10:55:13;101952.09;;;23.44;36.23
80749;BME280;70145;53.746;9.970;2023-06-05T10:58:08;101945.59;;;23.53;35.96
80749;BME280;70145;53.746;9.970;2023-06-05T11:01:15;101946.94;;;23.65;35.90
80749;BME280;70145;53.746;9.970;2023-06-05T11:03:52;101949.34;;;23.68;34.95
80749;BME280;70145;53.746;9.970;2023-06-05T11:06:17;101943.84;;;23.76;35.07
80749;BME280;70145;53.746;9.970;2023-06-05T11:09:12;101937.16;;;23.78;34.35
80749;BME280;70145;53.746;9.970;2023-06-05T11:11:57;101934.25;;;23.88;34.88
80749;BME280;70145;53.746;9.970;2023-06-05T11:14:24;101929.59;;;23.96;34.74
80749;BME280;70145;53.746;9.970;2023-06-05T11:16:49;101926.66;;;24.06;34.71
80749;BME280;70145;53.746;9.970;2023-06-05T11:22:03;101917.84;;;24.18;34.08
80749;BME280;70145;53.746;9.970;2023-06-05T11:24:29;101924.22;;;24.19;34.07
80749;BME280;70145;53.746;9.970;2023-06-05T11:26:55;101922.28;;;24.27;33.75
80749;BME280;70145;53.746;9.970;2023-06-05T11:29:20;101914.03;;;24.35;33.87
80749;BME280;70145;53.746;9.970;2023-06-05T11:31:48;101919.66;;;24.42;33.56
80749;BME280;70145;53.746;9.970;2023-06-05T11:34:14;101912.78;;;24.54;33.82
80749;BME280;70145;53.746;9.970;2023-06-05T11:36:40;101916.31;;;24.63;33.51
80749;BME280;70145;53.746;9.970;2023-06-05T11:39:05;101918.66;;;24.74;33.87
80749;BME280;70145;53.746;9.970;2023-06-05T11:41:31;101902.66;;;24.77;33.13
80749;BME280;70145;53.746;9.970;2023-06-05T11:43:57;101918.44;;;24.83;32.49
80749;BME280;70145;53.746;9.970;2023-06-05T11:46:42;101907.44;;;24.83;32.61
80749;BME280;70145;53.746;9.970;2023-06-05T11:49:28;101910.00;;;24.85;32.95
80749;BME280;70145;53.746;9.970;2023-06-05T11:51:54;101903.75;;;24.91;32.71
80749;BME280;70145;53.746;9.970;2023-06-05T11:54:24;101908.06;;;24.93;32.56
80749;BME280;70145;53.746;9.970;2023-06-05T11:56:50;101891.22;;;24.96;32.44
80749;BME280;70145;53.746;9.970;2023-06-05T11:59:17;101898.22;;;24.99;32.60
80749;BME280;70145;53.746;9.970;2023-06-05T12:01:43;101899.56;;;25.03;32.24
80749;BME280;70145;53.746;9.970;2023-06-05T12:04:09;101894.59;;;25.06;32.57
80749;BME280;70145;53.746;9.970;2023-06-05T12:06:41;101893.88;;;25.12;32.58
80749;BME280;70145;53.746;9.970;2023-06-05T12:09:14;101887.59;;;25.18;32.53
80749;BME280;70145;53.746;9.970;2023-06-05T12:11:42;101887.06;;;25.23;32.58
80749;BME280;70145;53.746;9.970;2023-06-05T12:14:12;101891.44;;;25.32;32.49
80749;BME280;70145;53.746;9.970;2023-06-05T12:16:39;101872.97;;;25.40;32.47
80749;BME280;70145;53.746;9.970;2023-06-05T12:19:12;101887.69;;;25.47;31.80
80749;BME280;70145;53.746;9.970;2023-06-05T12:21:37;101882.50;;;25.52;32.14
80749;BME280;70145;53.746;9.970;2023-06-05T12:24:04;101871.13;;;25.55;31.78
80749;BME280;70145;53.746;9.970;2023-06-05T12:29:23;101877.31;;;25.72;31.49
80749;BME280;70145;53.746;9.970;2023-06-05T12:31:48;101868.88;;;25.73;31.00
80749;BME280;70145;53.746;9.970;2023-06-05T12:34:14;101876.00;;;25.82;30.57
80749;BME280;70145;53.746;9.970;2023-06-05T12:36:41;101875.25;;;25.88;30.67
80749;BME280;70145;53.746;9.970;2023-06-05T12:39:10;101880.47;;;25.98;30.43
80749;BME280;70145;53.746;9.970;2023-06-05T12:41:35;101874.00;;;26.05;30.37
80749;BME280;70145;53.746;9.970;2023-06-05T12:44:02;101877.50;;;26.14;30.54
80749;BME280;70145;53.746;9.970;2023-06-05T12:46:30;101864.53;;;26.22;30.50
80749;BME280;70145;53.746;9.970;2023-06-05T12:48:56;101868.88;;;26.31;30.73
80749;BME280;70145;53.746;9.970;2023-06-05T12:51:23;101873.22;;;26.40;30.51
80749;BME280;70145;53.746;9.970;2023-06-05T12:53:51;101871.69;;;26.52;30.89
80749;BME280;70145;53.746;9.970;2023-06-05T12:56:16;101865.66;;;26.63;30.77
80749;BME280;70145;53.746;9.970;2023-06-05T12:58:41;101863.81;;;26.71;30.27
80749;BME280;70145;53.746;9.970;2023-06-05T13:01:06;101861.19;;;26.77;29.80
80749;BME280;70145;53.746;9.970;2023-06-05T13:03:32;101865.53;;;26.86;29.85
80749;BME280;70145;53.746;9.970;2023-06-05T13:05:58;101855.41;;;26.93;30.09
80749;BME280;70145;53.746;9.970;2023-06-05T13:08:23;101863.72;;;27.00;29.12
80749;BME280;70145;53.746;9.970;2023-06-05T13:10:52;101858.28;;;27.06;28.70
80749;BME280;70145;53.746;9.970;2023-06-05T13:13:18;101845.63;;;27.12;29.28
80749;BME280;70145;53.746;9.970;2023-06-05T13:15:44;101849.09;;;27.20;29.31